Time;durP1;ratioP1;P1;durP2;ratioP2;P2;SDS_P1;SDS_P2;PMS_P1;PMS_P2;Temp;Humidity;BMP_temperature;BMP_pressure;BME280_temperature;BME280_humidity;BME280_pressure;Samples;Min_cycle;Max_cycle;Signal;HPM_P1;HPM_P2
2023/04/15 00:02:16;;;;;;;;;2.00;2.00;;;;;20.44;37.82;99989.47;5109570;27;45298;-39
2023/04/15 00:04:42;;;;;;;;;2.00;2.00;;;;;20.44;37.54;99983.38;5105337;27;45490;-39
2023/04/15 00:07:07;;;;;;;;;2.00;2.00;;;;;20.43;37.53;99981.69;5104774;27;46944;-40
2023/04/15 00:09:32;;;;;;;;;5.50;2.00;;;;;20.42;37.89;99974.72;5108634;27;45317;-39
2023/04/15 00:11:58;;;;;;;;;2.00;2.00;;;;;20.41;37.63;99968.59;5113473;27;49219;-39
2023/04/15 00:14:23;;;;;;;;;2.75;1.00;;;;;20.39;37.69;99960.00;5118493;27;45354;-39
2023/04/15 00:16:54;;;;;;;;;0.00;0.00;;;;;20.37;37.25;99954.00;5109757;27;45423;-41
2023/04/15 00:19:19;;;;;;;;;1.75;1.75;;;;;20.39;38.01;99957.38;5106506;27;45882;-38
2023/04/15 00:21:45;;;;;;;;;2.00;2.00;;;;;20.38;37.96;99943.34;5113729;27;44649;-38
2023/04/15 00:24:10;;;;;;;;;2.25;2.25;;;;;20.37;37.45;99940.84;5117953;27;45132;-37
2023/04/15 00:26:36;;;;;;;;;1.00;1.00;;;;;20.36;38.05;99939.97;5109479;27;46168;-39
2023/04/15 00:29:01;;;;;;;;;2.75;2.75;;;;;20.36;38.00;99939.97;5105039;27;45562;-38
2023/04/15 00:31:27;;;;;;;;;2.50;2.50;;;;;20.34;37.93;99933.97;5111726;27;45233;-39
2023/04/15 00:33:52;;;;;;;;;2.00;2.00;;;;;20.33;37.40;99932.31;5104560;27;45627;-38
2023/04/15 00:36:17;;;;;;;;;3.33;2.00;;;;;20.33;37.72;99929.69;5101599;27;68378;-40
2023/04/15 00:38:42;;;;;;;;;1.67;1.67;;;;;20.32;38.02;99928.00;5115832;27;69526;-38
2023/04/15 00:41:10;;;;;;;;;2.00;2.00;;;;;20.31;37.94;99926.31;5116864;27;45242;-44
2023/04/15 00:43:35;;;;;;;;;2.75;2.00;;;;;20.33;38.10;99927.06;5105180;27;45344;-39
2023/04/15 00:46:03;;;;;;;;;2.25;2.25;;;;;20.32;37.83;99919.25;5099881;27;45336;-39
2023/04/15 00:48:29;;;;;;;;;2.75;2.00;;;;;20.32;37.94;99924.50;5099265;27;45353;-38
2023/04/15 00:50:55;;;;;;;;;1.00;1.00;;;;;20.31;37.62;99915.78;5103024;27;45297;-44
2023/04/15 00:53:20;;;;;;;;;2.00;2.00;;;;;20.30;37.74;99921.13;5104699;27;45547;-39
2023/04/15 00:55:45;;;;;;;;;2.00;2.00;;;;;20.28;37.70;99910.72;5106030;27;46419;-41
2023/04/15 00:58:11;;;;;;;;;3.00;1.00;;;;;20.28;38.07;99921.25;5106301;27;45934;-39
2023/04/15 01:00:36;;;;;;;;;2.00;2.00;;;;;20.27;37.64;99911.66;5121811;27;44928;-40
2023/04/15 01:03:02;;;;;;;;;2.50;2.50;;;;;20.27;37.50;99921.38;5120377;27;44836;-38
2023/04/15 01:05:27;;;;;;;;;2.00;2.00;;;;;20.27;37.88;99913.47;5111353;27;46052;-40
2023/04/15 01:07:54;;;;;;;;;2.50;2.00;;;;;20.25;37.81;99913.56;5107125;27;45302;-39
2023/04/15 01:10:19;;;;;;;;;2.00;2.00;;;;;20.25;37.77;99910.94;5117732;27;52552;-39
2023/04/15 01:12:44;;;;;;;;;1.25;1.25;;;;;20.25;38.10;99910.94;5122102;27;44815;-38
2023/04/15 01:15:10;;;;;;;;;2.25;2.00;;;;;20.24;37.78;99915.38;5118925;27;51101;-42
2023/04/15 01:17:36;;;;;;;;;2.25;1.50;;;;;20.23;38.23;99912.81;5117143;27;45297;-38
2023/04/15 01:20:01;;;;;;;;;1.50;1.50;;;;;20.23;37.99;99912.81;5114202;27;45259;-39
2023/04/15 01:22:27;;;;;;;;;1.00;1.00;;;;;20.22;37.91;99905.91;5107202;27;45561;-39
2023/04/15 01:25:05;;;;;;;;;1.00;1.00;;;;;20.22;37.77;99903.28;5111938;27;46163;-39
2023/04/15 01:27:31;;;;;;;;;2.75;2.00;;;;;20.20;38.27;99897.25;5118727;27;45088;-39
2023/04/15 01:29:57;;;;;;;;;1.00;1.00;;;;;20.20;38.00;99897.25;5115028;27;45387;-38
2023/04/15 01:32:23;;;;;;;;;2.00;1.25;;;;;20.20;38.30;99898.09;5109941;27;45309;-37
2023/04/15 01:34:48;;;;;;;;;2.00;2.00;;;;;20.17;38.56;99886.94;5106788;27;46065;-38
2023/04/15 01:37:13;;;;;;;;;2.00;2.00;;;;;20.19;38.00;99890.31;5105789;27;45470;-38
2023/04/15 01:39:39;;;;;;;;;2.00;2.00;;;;;20.18;38.13;99893.91;5116257;27;45493;-38
2023/04/15 01:42:05;;;;;;;;;2.00;0.00;;;;;20.18;38.20;99893.91;5115326;27;45239;-38
2023/04/15 01:44:31;;;;;;;;;3.75;2.00;;;;;20.18;38.56;99899.16;5102581;27;46976;-38
2023/04/15 01:46:56;;;;;;;;;1.75;1.25;;;;;20.16;38.59;99901.03;5098541;27;45418;-41
2023/04/15 01:49:22;;;;;;;;;1.50;1.25;;;;;20.15;38.56;99900.22;5098525;27;45787;-38
2023/04/15 01:51:47;;;;;;;;;2.00;2.00;;;;;20.15;38.59;99900.22;5097179;27;45571;-40
2023/04/15 01:54:12;;;;;;;;;1.00;1.00;;;;;20.14;38.33;99895.03;5099234;27;45989;-38
2023/04/15 01:56:38;;;;;;;;;1.25;1.25;;;;;20.15;38.22;99904.63;5099628;27;64018;-39
2023/04/15 01:59:03;;;;;;;;;1.00;1.00;;;;;20.14;38.37;99898.53;5103494;27;45208;-39
2023/04/15 02:01:28;;;;;;;;;2.00;2.00;;;;;20.13;38.50;99902.09;5100394;27;45270;-41
2023/04/15 02:03:53;;;;;;;;;1.00;1.00;;;;;20.14;38.28;99913.44;5098478;27;45999;-40
2023/04/15 02:06:19;;;;;;;;;2.00;1.00;;;;;20.14;38.43;99921.34;5098020;27;52955;-41
2023/04/15 02:08:45;;;;;;;;;3.50;2.00;;;;;20.13;38.84;99917.88;5105861;27;45264;-39
2023/04/15 02:11:10;;;;;;;;;2.00;2.00;;;;;20.13;38.78;99917.88;5104993;27;45237;-40
2023/04/15 02:13:36;;;;;;;;;1.00;1.00;;;;;20.13;38.71;99917.03;5102203;27;45594;-41
2023/04/15 02:16:02;;;;;;;;;1.00;1.00;;;;;20.13;38.98;99920.50;5102843;27;45410;-39
2023/04/15 02:18:27;;;;;;;;;3.00;2.00;;;;;20.13;38.24;99927.56;5099337;27;45348;-41
2023/04/15 02:20:52;;;;;;;;;2.50;1.75;;;;;20.12;38.68;99926.72;5097880;27;45329;-38
2023/04/15 02:23:18;;;;;;;;;1.75;1.75;;;;;20.11;38.91;99929.47;5097845;27;45365;-38
2023/04/15 02:25:43;;;;;;;;;1.00;1.00;;;;;20.11;39.06;99925.03;5101185;27;45453;-39
2023/04/15 02:28:08;;;;;;;;;2.50;1.75;;;;;20.11;38.74;99930.28;5102674;27;45314;-39
2023/04/15 02:30:34;;;;;;;;;2.00;2.00;;;;;20.12;38.56;99941.69;5108745;27;44856;-38
2023/04/15 02:33:00;;;;;;;;;1.00;1.00;;;;;20.12;38.88;99941.69;5100832;27;45243;-38
2023/04/15 02:35:25;;;;;;;;;1.00;1.00;;;;;20.11;39.13;99940.00;5101795;27;45420;-40
2023/04/15 02:37:51;;;;;;;;;1.50;1.50;;;;;20.09;38.64;99950.59;5099056;27;45333;-38
2023/04/15 02:40:17;;;;;;;;;1.75;1.25;;;;;20.10;38.66;99943.56;5098278;27;45472;-41
2023/04/15 02:42:43;;;;;;;;;1.00;1.00;;;;;20.10;39.20;99948.81;5101833;27;47283;-41
2023/04/15 02:45:09;;;;;;;;;1.00;1.00;;;;;20.09;38.78;99953.22;5108720;27;45291;-41
2023/04/15 02:47:35;;;;;;;;;3.25;2.00;;;;;20.10;39.17;99951.47;5107829;27;45807;-40
2023/04/15 02:50:04;;;;;;;;;1.00;1.00;;;;;20.08;38.74;99957.66;5104888;27;45414;-39
2023/04/15 02:52:30;;;;;;;;;1.75;1.75;;;;;20.09;38.97;99963.75;5103996;27;46149;-38
2023/04/15 02:54:59;;;;;;;;;2.25;1.75;;;;;20.08;38.84;99965.56;5113685;27;45297;-38
2023/04/15 02:57:28;;;;;;;;;1.00;1.00;;;;;20.07;39.21;99971.75;5116043;27;44818;-38
2023/04/15 02:59:54;;;;;;;;;1.00;1.00;;;;;20.09;39.32;99976.91;5106760;27;45459;-40
2023/04/15 03:02:19;;;;;;;;;1.00;1.00;;;;;20.07;39.00;99982.28;5107107;27;47355;-40
2023/04/15 03:04:44;;;;;;;;;1.00;1.00;;;;;20.07;38.91;99984.91;5105414;27;45557;-40
2023/04/15 03:07:10;;;;;;;;;1.50;1.50;;;;;20.08;39.39;99988.38;5110477;27;45373;-40
2023/04/15 03:09:35;;;;;;;;;1.50;1.50;;;;;20.07;38.88;99992.81;5114135;27;54310;-38
2023/04/15 03:12:01;;;;;;;;;1.00;1.00;;;;;20.06;39.19;99999.00;5109384;27;46144;-39
2023/04/15 03:14:26;;;;;;;;;1.00;1.00;;;;;20.06;39.01;99999.00;5102489;27;45349;-39
2023/04/15 03:16:52;;;;;;;;;2.25;2.00;;;;;20.05;39.66;100005.22;5105749;27;61465;-39
2023/04/15 03:19:17;;;;;;;;;1.25;1.25;;;;;20.06;39.05;100009.53;5114082;27;45406;-42
2023/04/15 03:21:42;;;;;;;;;1.00;1.00;;;;;20.06;39.05;100012.16;5117999;27;45294;-42
2023/04/15 03:24:08;;;;;;;;;1.00;1.00;;;;;20.06;39.39;100016.59;5125291;27;45225;-38
2023/04/15 03:26:33;;;;;;;;;1.00;1.00;;;;;20.05;39.05;100018.34;5124626;27;51089;-42
2023/04/15 03:28:58;;;;;;;;;1.25;1.25;;;;;20.05;39.49;100025.41;5123722;27;44865;-39
2023/04/15 03:31:24;;;;;;;;;1.75;1.00;;;;;20.06;39.62;100022.69;5119366;27;59947;-40
2023/04/15 03:33:49;;;;;;;;;1.00;1.00;;;;;20.05;39.65;100026.25;5107026;27;45244;-39
2023/04/15 03:36:15;;;;;;;;;2.00;2.00;;;;;20.05;39.69;100034.16;5107055;27;45331;-38
2023/04/15 03:38:41;;;;;;;;;1.75;1.75;;;;;20.05;39.53;100028.06;5107105;27;45579;-39
2023/04/15 03:41:06;;;;;;;;;1.00;1.00;;;;;20.05;39.71;100028.88;5099944;27;46327;-39
2023/04/15 03:43:32;;;;;;;;;1.00;1.00;;;;;20.04;39.45;100035.09;5100766;27;45257;-39
2023/04/15 03:45:57;;;;;;;;;1.00;1.00;;;;;20.04;39.12;100035.09;5104470;27;45221;-38
2023/04/15 03:48:22;;;;;;;;;2.50;2.50;;;;;20.04;39.60;100040.34;5109649;27;45539;-38
2023/04/15 03:50:48;;;;;;;;;1.00;1.00;;;;;20.03;39.48;100036.03;5103751;27;46205;-38
2023/04/15 03:53:14;;;;;;;;;1.25;1.25;;;;;20.04;39.67;100040.34;5105733;27;45335;-39
2023/04/15 03:55:39;;;;;;;;;1.75;1.75;;;;;20.03;39.55;100046.53;5107556;27;45316;-40
2023/04/15 03:58:05;;;;;;;;;1.00;1.00;;;;;20.02;39.54;100052.75;5104727;27;45594;-40
2023/04/15 04:00:30;;;;;;;;;1.00;1.00;;;;;20.04;39.09;100052.66;5105812;27;48584;-38
2023/04/15 04:02:56;;;;;;;;;1.00;1.00;;;;;20.01;39.85;100044.97;5110051;27;45333;-38
2023/04/15 04:05:21;;;;;;;;;1.00;1.00;;;;;20.03;39.61;100064.13;5118548;27;57661;-39
2023/04/15 04:07:46;;;;;;;;;1.33;1.00;;;;;20.02;39.19;100058.00;5117879;27;52758;-38
2023/04/15 04:10:11;;;;;;;;;0.00;0.00;;;;;20.02;39.38;100062.44;5105458;27;46131;-38
2023/04/15 04:12:37;;;;;;;;;1.00;1.00;;;;;20.01;39.36;100061.59;5101888;27;62836;-41
2023/04/15 04:15:02;;;;;;;;;1.00;1.00;;;;;20.01;39.34;100061.59;5122463;27;44720;-39
2023/04/15 04:17:28;;;;;;;;;1.50;0.25;;;;;20.02;39.35;100065.91;5121691;27;45364;-39
2023/04/15 04:19:53;;;;;;;;;0.00;0.00;;;;;20.00;39.67;100074.84;5102679;27;73314;-38
2023/04/15 04:22:22;;;;;;;;;0.00;0.00;;;;;20.02;40.08;100076.41;5099911;27;45660;-40
2023/04/15 04:24:48;;;;;;;;;1.00;0.00;;;;;20.02;39.84;100078.22;5103879;27;45325;-38
2023/04/15 04:27:13;;;;;;;;;1.00;0.00;;;;;20.00;39.52;100080.97;5111749;27;45395;-38
2023/04/15 04:29:38;;;;;;;;;0.75;0.75;;;;;20.02;39.98;100088.75;5113711;27;59123;-38
2023/04/15 04:32:04;;;;;;;;;1.00;1.00;;;;;20.01;39.55;100084.44;5109394;27;70778;-38
2023/04/15 04:34:29;;;;;;;;;1.50;1.50;;;;;20.00;39.50;100086.22;5106636;27;45336;-38
2023/04/15 04:36:55;;;;;;;;;1.00;1.00;;;;;20.00;39.84;100090.63;5105767;27;45507;-40
2023/04/15 04:39:20;;;;;;;;;1.75;1.00;;;;;20.00;39.83;100099.38;5108009;27;46836;-38
2023/04/15 04:41:46;;;;;;;;;0.75;0.75;;;;;19.98;39.89;100092.50;5113000;27;45283;-38
2023/04/15 04:44:11;;;;;;;;;0.00;0.00;;;;;19.98;39.84;100096.00;5110528;27;45272;-39
2023/04/15 04:46:36;;;;;;;;;0.25;0.25;;;;;19.99;39.57;100105.56;5106411;27;45386;-39
2023/04/15 04:49:02;;;;;;;;;0.00;0.00;;;;;19.97;39.97;100099.56;5101790;27;53228;-38
2023/04/15 04:51:27;;;;;;;;;0.00;0.00;;;;;19.98;39.84;100109.16;5104815;27;63844;-39
2023/04/15 04:53:53;;;;;;;;;0.00;0.00;;;;;19.98;39.85;100109.16;5105099;27;47971;-41
2023/04/15 04:56:18;;;;;;;;;0.00;0.00;;;;;19.99;39.84;100105.56;5118538;27;44892;-38
2023/04/15 04:58:43;;;;;;;;;1.00;0.00;;;;;19.98;39.70;100114.41;5115815;27;62392;-38
2023/04/15 05:01:09;;;;;;;;;1.25;1.00;;;;;19.97;39.98;100117.13;5106194;27;45460;-38
2023/04/15 05:03:34;;;;;;;;;0.00;0.00;;;;;19.97;39.60;100117.13;5116533;27;45241;-38
2023/04/15 05:06:01;;;;;;;;;0.00;0.00;;;;;19.97;40.00;100133.75;5107220;27;45239;-38
2023/04/15 05:08:27;;;;;;;;;0.00;0.00;;;;;19.96;39.85;100142.59;5107945;27;46227;-39
2023/04/15 05:10:52;;;;;;;;;1.00;1.00;;;;;19.96;40.08;100137.31;5108973;27;45152;-38
2023/04/15 05:13:18;;;;;;;;;0.00;0.00;;;;;19.95;40.01;100151.41;5110713;27;45424;-39
2023/04/15 05:15:44;;;;;;;;;0.25;0.25;;;;;19.97;39.83;100156.56;5121745;27;44898;-38
2023/04/15 05:18:09;;;;;;;;;0.25;0.00;;;;;19.95;39.54;100161.94;5114689;27;46322;-39
2023/04/15 05:20:35;;;;;;;;;0.00;0.00;;;;;19.93;40.00;100155.94;5108025;27;45389;-40
2023/04/15 05:23:00;;;;;;;;;0.50;0.00;;;;;19.95;39.87;100166.38;5107383;27;45327;-45
2023/04/15 05:25:25;;;;;;;;;0.00;0.00;;;;;19.96;40.17;100182.03;5110629;27;45349;-39
2023/04/15 05:27:51;;;;;;;;;0.00;0.00;;;;;19.95;39.94;100171.63;5113055;27;46059;-44
2023/04/15 05:30:16;;;;;;;;;0.00;0.00;;;;;19.95;39.75;100185.59;5115887;27;49646;-44
2023/04/15 05:32:41;;;;;;;;;0.00;0.00;;;;;19.95;39.83;100198.75;5121196;27;44773;-40
2023/04/15 05:35:07;;;;;;;;;0.00;0.00;;;;;19.94;40.17;100194.44;5104869;27;45428;-40
2023/04/15 05:37:32;;;;;;;;;0.00;0.00;;;;;19.95;39.89;100203.19;5107185;27;46104;-40
2023/04/15 05:39:58;;;;;;;;;0.25;0.25;;;;;19.95;40.20;100205.81;5103103;27;45262;-40
2023/04/15 05:42:23;;;;;;;;;0.00;0.00;;;;;19.93;39.60;100203.25;5112146;27;45357;-39
2023/04/15 05:44:48;;;;;;;;;0.00;0.00;;;;;19.95;39.73;100211.91;5113328;27;44879;-42
2023/04/15 05:47:14;;;;;;;;;0.00;0.00;;;;;19.93;39.60;100214.66;5112832;27;45649;-40
2023/04/15 05:49:40;;;;;;;;;1.75;1.00;;;;;19.93;39.58;100219.91;5107593;27;45164;-38
2023/04/15 05:52:05;;;;;;;;;0.25;0.25;;;;;19.92;40.30;100218.22;5103554;27;45365;-38
2023/04/15 05:54:31;;;;;;;;;2.00;1.00;;;;;19.91;39.56;100226.19;5106932;27;45365;-38
2023/04/15 05:56:57;;;;;;;;;1.00;1.00;;;;;19.91;39.99;100237.56;5105927;27;45298;-38
2023/04/15 05:59:22;;;;;;;;;0.25;0.25;;;;;19.89;39.89;100230.72;5105214;27;45710;-42
2023/04/15 06:01:48;;;;;;;;;1.00;1.00;;;;;19.89;40.28;100252.59;5108031;27;45193;-38
2023/04/15 06:04:14;;;;;;;;;1.00;1.00;;;;;19.88;39.92;100260.59;5106390;27;45299;-37
2023/04/15 06:06:39;;;;;;;;;0.00;0.00;;;;;19.87;39.95;100254.47;5112127;27;45911;-38
2023/04/15 06:09:05;;;;;;;;;1.00;1.00;;;;;19.87;39.77;100258.91;5113347;27;44754;-41
2023/04/15 06:11:30;;;;;;;;;1.00;0.50;;;;;19.86;39.77;100265.09;5116881;27;45368;-39
2023/04/15 06:13:56;;;;;;;;;0.00;0.00;;;;;19.84;40.00;100265.16;5118141;27;45293;-38
2023/04/15 06:16:22;;;;;;;;;0.00;0.00;;;;;19.85;40.46;100276.50;5112933;27;46208;-39
2023/04/15 06:18:47;;;;;;;;;1.00;1.00;;;;;19.85;40.43;100281.78;5111467;27;45177;-40
2023/04/15 06:21:12;;;;;;;;;1.50;1.00;;;;;19.83;40.38;100292.41;5112401;27;45270;-38
2023/04/15 06:23:40;;;;;;;;;0.00;0.00;;;;;19.85;40.03;100294.91;5104862;27;45268;-38
2023/04/15 06:26:05;;;;;;;;;0.00;0.00;;;;;19.85;40.03;100314.16;5101485;27;46068;-38
2023/04/15 06:28:31;;;;;;;;;0.50;0.50;;;;;19.84;40.52;100311.63;5101046;27;45246;-37
2023/04/15 06:30:56;;;;;;;;;1.75;0.25;;;;;19.85;40.27;100313.31;5103525;27;45584;-38
2023/04/15 06:33:21;;;;;;;;;0.00;0.00;;;;;19.86;40.51;100321.16;5103209;27;45226;-37
2023/04/15 06:35:48;;;;;;;;;0.00;0.00;;;;;19.88;40.49;100331.59;5098243;27;47051;-37
2023/04/15 06:38:13;;;;;;;;;1.00;0.00;;;;;19.89;40.24;100343.81;5103947;27;45856;-39
2023/04/15 06:40:39;;;;;;;;;0.00;0.00;;;;;19.89;40.18;100342.00;5109506;27;45322;-41
2023/04/15 06:43:05;;;;;;;;;1.00;1.00;;;;;19.90;40.36;100346.34;5104772;27;45596;-39
2023/04/15 06:45:31;;;;;;;;;0.50;0.00;;;;;19.89;40.50;100341.19;5108075;27;45557;-39
2023/04/15 06:47:56;;;;;;;;;0.00;0.00;;;;;19.89;40.34;100356.97;5103745;27;45489;-39
2023/04/15 06:50:21;;;;;;;;;1.00;0.00;;;;;19.88;40.65;100365.78;5105225;27;45386;-40
2023/04/15 06:52:47;;;;;;;;;0.00;0.00;;;;;19.88;40.72;100363.16;5103850;27;45372;-37
2023/04/15 06:55:12;;;;;;;;;0.00;0.00;;;;;19.89;40.98;100362.22;5107874;27;46192;-38
2023/04/15 06:57:37;;;;;;;;;0.00;0.00;;;;;19.90;40.67;100379.66;5105367;27;45320;-37
2023/04/15 07:00:04;;;;;;;;;0.00;0.00;;;;;19.90;40.65;100384.91;5100004;27;45314;-37
2023/04/15 07:02:30;;;;;;;;;1.00;0.00;;;;;19.88;40.49;100386.81;5108563;27;45233;-39
2023/04/15 07:04:55;;;;;;;;;0.00;0.00;;;;;19.90;40.43;100392.81;5125211;27;45889;-42
2023/04/15 07:07:21;;;;;;;;;0.00;0.00;;;;;19.90;40.49;100401.56;5130152;27;45257;-41
2023/04/15 07:09:46;;;;;;;;;0.00;0.00;;;;;19.91;40.64;100405.03;5135968;27;45241;-38
2023/04/15 07:12:12;;;;;;;;;0.00;0.00;;;;;19.90;40.77;100412.09;5137666;27;45302;-40
2023/04/15 07:14:37;;;;;;;;;0.00;0.00;;;;;19.90;41.14;100416.47;5130861;27;45617;-40
2023/04/15 07:17:02;;;;;;;;;0.00;0.00;;;;;19.89;40.76;100420.06;5127993;27;50587;-41
2023/04/15 07:19:27;;;;;;;;;0.00;0.00;;;;;19.88;40.74;100421.00;5128135;27;56606;-37
2023/04/15 07:21:53;;;;;;;;;0.00;0.00;;;;;19.87;40.62;100428.03;5125315;27;45108;-38
2023/04/15 07:24:19;;;;;;;;;0.00;0.00;;;;;19.89;40.85;100430.59;5130205;27;63803;-38
2023/04/15 07:26:45;;;;;;;;;0.00;0.00;;;;;19.88;40.25;100435.00;5132640;27;45701;-40
2023/04/15 07:29:10;;;;;;;;;0.00;0.00;;;;;19.86;40.64;100426.34;5130788;27;45310;-41
2023/04/15 07:31:36;;;;;;;;;0.00;0.00;;;;;19.87;40.35;100449.06;5129228;27;45827;-38
2023/04/15 07:34:03;;;;;;;;;0.00;0.00;;;;;19.85;40.45;100448.28;5126803;27;46273;-39
2023/04/15 07:36:29;;;;;;;;;0.25;0.00;;;;;19.87;40.29;100449.06;5137097;27;45311;-39
2023/04/15 07:38:54;;;;;;;;;0.00;0.00;;;;;19.87;40.56;100458.75;5137933;27;44716;-39
2023/04/15 07:41:20;;;;;;;;;0.00;0.00;;;;;19.87;40.35;100464.03;5122676;27;45248;-38
2023/04/15 07:43:46;;;;;;;;;0.00;0.00;;;;;19.87;40.55;100469.28;5118128;27;46474;-38
2023/04/15 07:46:11;;;;;;;;;1.00;0.00;;;;;19.87;40.37;100472.75;5118175;27;45332;-38
2023/04/15 07:48:37;;;;;;;;;0.00;0.00;;;;;19.88;40.56;100486.75;5119068;27;45331;-40
2023/04/15 07:51:02;;;;;;;;;0.00;0.00;;;;;19.87;40.50;100487.69;5117748;27;45645;-39
2023/04/15 07:53:27;;;;;;;;;1.00;0.00;;;;;19.88;40.17;100497.28;5122278;27;46351;-39
2023/04/15 07:55:53;;;;;;;;;0.00;0.00;;;;;19.87;40.13;100500.84;5129695;27;45414;-39
2023/04/15 07:58:18;;;;;;;;;0.00;0.00;;;;;19.88;40.54;100507.81;5126864;27;48038;-37
2023/04/15 08:00:43;;;;;;;;;0.00;0.00;;;;;19.87;40.33;100511.38;5121668;27;45304;-36
2023/04/15 08:03:09;;;;;;;;;0.00;0.00;;;;;19.87;40.80;100512.19;5119634;27;54702;-38
2023/04/15 08:05:34;;;;;;;;;0.00;0.00;;;;;19.87;40.31;100519.25;5119600;27;62740;-38
2023/04/15 08:08:00;;;;;;;;;0.00;0.00;;;;;19.87;40.83;100524.50;5122961;27;45328;-38
2023/04/15 08:10:25;;;;;;;;;0.00;0.00;;;;;19.88;40.34;100534.09;5127311;27;45304;-38
2023/04/15 08:12:53;;;;;;;;;0.00;0.00;;;;;19.88;40.25;100528.84;5123486;27;46101;-40
2023/04/15 08:15:19;;;;;;;;;0.00;0.00;;;;;19.87;40.80;100541.13;5121577;27;46174;-38
2023/04/15 08:17:44;;;;;;;;;0.00;0.00;;;;;19.88;40.49;100555.16;5121389;27;45242;-38
2023/04/15 08:20:10;;;;;;;;;0.00;0.00;;;;;19.86;40.13;100557.84;5124503;27;56028;-38
2023/04/15 08:22:35;;;;;;;;;0.00;0.00;;;;;19.88;40.54;100563.03;5127350;27;46236;-39
2023/04/15 08:25:01;;;;;;;;;0.00;0.00;;;;;19.87;40.69;100566.59;5120497;27;45274;-38
2023/04/15 08:27:26;;;;;;;;;0.00;0.00;;;;;19.87;40.12;100574.50;5121963;27;45339;-38
2023/04/15 08:29:51;;;;;;;;;0.00;0.00;;;;;19.86;40.08;100580.69;5123791;27;45209;-38
2023/04/15 08:32:17;;;;;;;;;0.00;0.00;;;;;19.86;40.13;100584.13;5123472;27;46375;-39
2023/04/15 16:21:09;;;;;;;;;5.00;3.25;;;;;19.83;39.50;101330.41;5962517;22;46581;-41
2023/04/15 16:23:36;;;;;;;;;3.00;3.00;;;;;19.84;39.30;101342.63;5015120;28;45507;-52
2023/04/15 16:26:01;;;;;;;;;3.00;3.00;;;;;19.84;39.99;101340.00;5018593;28;45412;-52
2023/04/15 16:28:27;;;;;;;;;2.50;2.25;;;;;19.85;40.08;101342.56;5018694;28;45521;-52
2023/04/15 16:30:53;;;;;;;;;2.00;2.00;;;;;19.85;39.92;101345.19;5018503;28;45346;-48
2023/04/15 16:33:18;;;;;;;;;3.50;3.00;;;;;19.85;39.57;101350.44;5018269;28;45332;-50
2023/04/15 16:35:43;;;;;;;;;3.00;3.00;;;;;19.86;39.41;101346.09;5017271;28;45397;-44
2023/04/15 16:38:09;;;;;;;;;2.00;2.00;;;;;19.86;39.83;101346.94;5019008;28;45301;-42
2023/04/15 16:40:36;;;;;;;;;3.00;3.00;;;;;19.86;39.37;101349.56;5018524;28;46255;-46
2023/04/15 16:43:02;;;;;;;;;5.00;3.00;;;;;19.86;39.39;101359.25;5018314;28;45418;-45
2023/04/15 16:45:27;;;;;;;;;3.00;3.00;;;;;19.87;39.88;101363.59;5017956;28;45486;-43
2023/04/15 16:47:53;;;;;;;;;3.00;3.00;;;;;19.86;39.29;101359.25;5017718;28;45422;-45
2023/04/15 16:50:18;;;;;;;;;3.00;3.00;;;;;19.84;39.45;101358.41;5017642;28;45922;-47
2023/04/15 16:52:44;;;;;;;;;3.75;3.75;;;;;19.85;39.99;101362.75;5018260;28;45768;-46
2023/04/15 16:55:09;;;;;;;;;3.00;3.00;;;;;19.85;39.55;101365.38;5017818;28;45474;-45
2023/04/15 16:57:34;;;;;;;;;3.00;3.00;;;;;19.85;39.39;101375.91;5018386;28;45371;-50
2023/04/15 16:59:59;;;;;;;;;4.00;4.00;;;;;19.84;39.92;101372.44;5034930;28;67921;-46
2023/04/15 17:02:25;;;;;;;;;4.00;4.00;;;;;19.83;39.71;101368.09;5037172;28;65439;-47
2023/04/15 17:04:50;;;;;;;;;3.00;3.00;;;;;19.84;39.44;101374.19;5037953;28;45315;-48
2023/04/15 17:07:15;;;;;;;;;5.00;3.00;;;;;19.83;39.80;101378.63;5038220;28;45317;-43
2023/04/15 17:09:41;;;;;;;;;3.00;3.00;;;;;19.85;39.43;101383.78;5038142;28;46227;-44
2023/04/15 17:12:06;;;;;;;;;4.00;3.00;;;;;19.85;39.84;101381.16;5037765;28;45232;-41
2023/04/15 17:14:32;;;;;;;;;3.00;3.00;;;;;19.86;39.72;101385.53;5037955;28;45373;-44
2023/04/15 17:16:58;;;;;;;;;3.25;3.00;;;;;19.88;39.88;101391.59;5036747;28;45591;-47
2023/04/15 17:19:23;;;;;;;;;4.00;4.00;;;;;19.87;39.95;101388.09;5036451;28;46490;-37
2023/04/15 17:21:50;;;;;;;;;3.50;3.00;;;;;19.89;39.54;101393.31;5037673;28;45272;-47
2023/04/15 17:24:16;;;;;;;;;3.00;3.00;;;;;19.89;39.84;101404.66;5037904;28;45373;-43
2023/04/15 17:26:41;;;;;;;;;3.00;3.00;;;;;19.89;40.00;101406.47;5038100;28;45666;-41
2023/04/15 17:29:06;;;;;;;;;4.25;3.00;;;;;19.88;39.95;101407.38;5051585;28;46111;-48
2023/04/15 17:31:32;;;;;;;;;3.00;3.00;;;;;19.91;39.81;101412.50;5036896;28;59279;-45
2023/04/15 17:33:58;;;;;;;;;4.00;4.00;;;;;19.92;39.96;101424.72;5037367;28;45352;-44
2023/04/15 17:36:23;;;;;;;;;4.00;3.25;;;;;19.92;39.81;101416.81;5036353;28;45316;-40
2023/04/15 17:38:48;;;;;;;;;2.75;2.75;;;;;19.90;39.61;101419.53;5032708;28;46282;-39
2023/04/15 17:41:14;;;;;;;;;4.00;4.00;;;;;19.90;39.96;101422.16;5034918;28;49171;-42
2023/04/15 17:43:40;;;;;;;;;4.00;4.00;;;;;19.92;39.66;101429.97;5036261;28;45526;-44
2023/04/15 17:46:06;;;;;;;;;6.00;4.00;;;;;19.89;39.68;101424.88;5024419;28;45341;-48
2023/04/15 17:48:32;;;;;;;;;3.00;3.00;;;;;19.88;39.41;101429.25;5017076;28;45635;-47
2023/04/15 17:50:57;;;;;;;;;3.00;3.00;;;;;19.89;39.91;101432.78;5017045;28;45246;-48
2023/04/15 17:53:23;;;;;;;;;4.25;4.25;;;;;19.89;39.69;101440.66;5017214;28;45323;-45
2023/04/15 17:55:51;;;;;;;;;3.00;3.00;;;;;19.88;39.41;101438.94;5017351;28;45579;-42
2023/04/15 17:58:17;;;;;;;;;4.00;3.25;;;;;19.88;39.89;101433.69;5016741;28;45443;-40
2023/04/15 18:00:42;;;;;;;;;5.00;5.00;;;;;19.87;39.49;101432.81;5017090;28;45445;-42
2023/04/15 18:03:10;;;;;;;;;5.00;5.00;;;;;19.86;39.96;101440.78;5016816;28;45389;-44
2023/04/15 18:05:36;;;;;;;;;4.50;3.00;;;;;19.86;39.82;101451.31;5017333;28;45326;-40
2023/04/15 18:08:01;;;;;;;;;4.25;4.25;;;;;19.85;39.45;101457.44;5016587;28;45358;-37
2023/04/15 18:10:26;;;;;;;;;4.75;4.75;;;;;19.81;39.72;101459.38;5016391;28;49795;-40
2023/04/15 18:12:52;;;;;;;;;6.75;6.75;;;;;19.81;39.42;101462.00;5016828;28;45454;-40
2023/04/15 18:15:18;;;;;;;;;4.75;4.75;;;;;19.80;39.59;101462.91;5015736;28;45601;-36
2023/04/15 18:17:43;;;;;;;;;4.00;4.00;;;;;19.80;39.79;101472.56;5017154;28;46470;-37
2023/04/15 18:20:09;;;;;;;;;5.00;5.00;;;;;19.80;40.13;101473.44;5016833;28;45307;-39
2023/04/15 18:22:34;;;;;;;;;6.00;4.25;;;;;19.78;39.65;101476.13;5015451;28;45604;-37
2023/04/15 18:25:03;;;;;;;;;6.00;6.00;;;;;19.77;39.83;101482.31;5016997;28;45402;-40
2023/04/15 18:27:30;;;;;;;;;5.00;5.00;;;;;19.75;39.87;101473.63;5015336;28;47546;-40
2023/04/15 18:29:55;;;;;;;;;7.75;7.00;;;;;19.77;39.92;101490.22;5014726;28;45371;-43
2023/04/15 18:32:20;;;;;;;;;8.75;6.00;;;;;19.77;40.10;101487.56;5016262;28;45373;-45
2023/04/15 18:34:46;;;;;;;;;8.67;6.00;;;;;19.78;39.61;101491.91;5016191;28;46176;-48
2023/04/15 18:37:11;;;;;;;;;5.00;5.00;;;;;19.78;39.48;101498.94;5016333;28;46184;-41
2023/04/15 18:39:36;;;;;;;;;8.00;6.00;;;;;19.75;39.81;101494.66;5015926;28;45512;-40
2023/04/15 18:42:02;;;;;;;;;5.00;5.00;;;;;19.78;39.86;101502.44;5016376;28;45366;-43
2023/04/15 18:44:27;;;;;;;;;6.25;6.25;;;;;19.78;39.79;101509.47;5021045;28;45463;-39
2023/04/15 18:46:52;;;;;;;;;5.25;5.00;;;;;19.78;39.56;101512.09;5035974;28;46233;-38
2023/04/15 18:49:18;;;;;;;;;7.50;6.00;;;;;19.77;39.69;101510.38;5035988;28;45292;-37
2023/04/15 18:51:43;;;;;;;;;4.75;4.75;;;;;19.77;39.67;101516.50;5036416;28;45381;-37
2023/04/15 18:54:09;;;;;;;;;5.00;5.00;;;;;19.77;39.76;101521.78;5034812;28;45669;-39
2023/04/15 18:56:34;;;;;;;;;6.75;5.00;;;;;19.77;40.21;101527.03;5034727;28;45995;-39
2023/04/15 18:59:00;;;;;;;;;5.00;5.00;;;;;19.78;40.07;101534.00;5036277;28;45374;-42
2023/04/15 19:01:25;;;;;;;;;8.25;5.50;;;;;19.81;39.72;101538.28;5036209;28;45386;-43
2023/04/15 19:03:50;;;;;;;;;5.00;5.00;;;;;19.84;39.82;101542.53;5036422;28;45385;-45
2023/04/15 19:06:16;;;;;;;;;4.50;4.50;;;;;19.89;40.29;101549.38;5024556;28;45319;-42